Sunday, February 07, 2016
01:27 UTC
  |  Log In   |  Register Free
Airport Search:

Madison Airport
(KI39)

Madison Airport Diagram
No Airport Diagram Available

FAA data valid effective Dec 10 2015 - Feb 4 2016 (unless otherwise noted).

 
 
 
 
 
 
 
 
 
 
 
 
 
 
Current Aviation Weather for KI39

Weather Summary


The most recent METAR observation for I39 was updated at: 12:55 UTC
METAR for KI39 is not available. Closest METAR is for KDVK
KI39  (most recent observation was updatred at 70:05 UTC)
070055Z AUTO 26003KT 10SM CLR 06/M06 A3027 RMK AO2

KDVK  (21.0 nm NE)   (most recent observation was updated at 70:05 UTC)
070055Z AUTO 00000KT 10SM CLR 03/M05 A3028 RMK AO2

KLEX  (27.6 nm SE)   (most recent observation was updated at 70:05 UTC)
070054Z 00000KT 10SM CLR 04/M05 A3027 RMK AO2 SLP256 T00441050 $

TAF for KI39 is not available.
KLEX  (27.6 nm SE)   (most recent observation was updatred at 62:32 UTC)
062320Z 0700/0724 26008KT P6SM SCT250 FM070200 19005KT P6SM SKC FM071500 21011G17KT P6SM SCT120


GlobalAir.com is loading additional information.
 Current Weather at I39
43.0 F° (6.0 C°)

West winds at 3.5 mph
Pressure:
30.26 in
Humidity:
42%
Wind:
West at 3.5 mph
Dew Point:
21.2 F° (-6.0 C°)
Visibility:
10.00 mi
I39 NOAA Radar




Find All Airport Services Find A Hotel Find A Rental Car Find A Golf Course Find A Restaurant $100 Hamburger



Airport Weather Forecast for KI39

Translated METAR for KI39 (0055 UTC)
METAR:
KI39 070055Z AUTO 26003KT 10SM CLR 06/M06 A3027 RMK AO2
Conditions at:
KI39 (Madison, KY) observed 0055 UTC 06 February 2016
Temperature:
6°C (42.8°F)
Dewpoint:
-6°C (21.2°F) [RH = 41.9]
Pressure:
30.27 inches Hg (1025.1 mb)
Winds:
from the W (260 degrees) at 3.5 mph (3 knots: 1.5 m/s)
Visibility:
10 mile(s)
Ceiling:
at least 12,000 feet AGL
Clouds:
Clear below 12,000 feet AGL
Remarks:
site is un-manned
site is automated and HAS a precipitation sensor

Translated TAF for KLEX (Blue Grass, KY) (2320 UTC)
TAF text:
KLEX 062320Z 0700/0724 26008KT P6SM SCT250
Forecast period:
Sunday Feb 07 2016 00:00 UTC - Sunday Feb 07 2016 24:00 UTC
Forecast type:
FROM: standard forecast or significant change
Winds:
from the W (260 degrees) at 9.2 mph (8 knots: 4.1 m/s)
Visibility:
6 or more mile(s) (9.7+ km)
Ceiling:
at least 12,000 feet AGL
Clouds:
Scattered Clouds at 25,000 feet AGL
Weather:
no significant weather observed at this time
TAF text:
FM070200 19005KT P6SM SKC
Forecast period:
Sunday Feb 07 2016 02:00 UTC - Sunday Feb 07 2016 15:00 UTC
Forecast type:
FROM: standard forecast or significant change
Winds:
from the S (190 degrees) at 5.8 mph (5 knots: 2.6 m/s)
Visibility:
6 or more mile(s) (9.7+ km)
Ceiling:
at least 12,000 feet AGL
Clouds:
Clear Skies
Weather:
no significant weather observed at this time
TAF text:
FM071500 21011G17KT P6SM SCT120
Forecast period:
Sunday Feb 07 2016 15:00 UTC - Sunday Feb 07 2016 24:00 UTC
Forecast type:
FROM: standard forecast or significant change
Winds:
from the SSW (210 degrees) at 12.7 mph (11 knots: 5.7 m/s)
gusting to 19.6 mph (17 knots: 8.7 m/s)
Visibility:
6 or more mile(s) (9.7+ km)
Ceiling:
at least 12,000 feet AGL
Clouds:
Scattered Clouds at 12,000 feet AGL
Weather:
no significant weather observed at this time
FBO's on the Field
FBO Company Facility Photos Services Transportation Aviation Fuel Prices: Prices include tax
Catering Weather Repair Courtesy Rental Type 100LL JetA JetA+ MOGAS 8087
 
Eastern Kentucky University

This FBO has not yet been rated
FS:Shell
Last Updated: Jan-11
Login to update fuel prices
SS:
Contact Eastern Kentucky UniversityMore FBO Information
 
Add another FBO Facility Photos Catering Weather Repair Courtesy Rental Type 100LL JetA JetA+ MOGAS 8087
Services Transportation Aviation Fuel Prices: Prices include tax


model-print
model-print
model-print
model-print